createdAt,value
2017-12-21T00:00:29.499Z,19.77
2017-12-21T00:02:56.091Z,18.40
2017-12-21T00:05:22.708Z,18.63
2017-12-21T00:07:49.310Z,19.03
2017-12-21T00:10:15.907Z,19.43
2017-12-21T00:12:42.517Z,18.80
2017-12-21T00:15:09.120Z,19.60
2017-12-21T00:17:35.719Z,21.20
2017-12-21T00:20:02.339Z,19.70
2017-12-21T00:22:34.762Z,19.47
2017-12-21T00:25:01.364Z,18.40
2017-12-21T00:27:27.976Z,17.13
2017-12-21T00:29:54.577Z,16.90
2017-12-21T00:32:21.184Z,16.53
2017-12-21T00:34:47.788Z,16.20
2017-12-21T00:37:14.389Z,15.70
2017-12-21T00:39:41.071Z,15.43
2017-12-21T00:42:07.611Z,15.60
2017-12-21T00:44:34.216Z,16.27
2017-12-21T00:47:00.924Z,15.00
2017-12-21T00:49:27.523Z,15.20
2017-12-21T00:51:54.129Z,15.10
2017-12-21T00:54:20.740Z,16.00
2017-12-21T00:56:47.339Z,15.00
2017-12-21T00:59:13.936Z,15.47
2017-12-21T01:01:40.573Z,15.37
2017-12-21T01:04:07.183Z,15.53
2017-12-21T01:06:33.796Z,14.80
2017-12-21T01:09:00.408Z,14.20
2017-12-21T01:11:27.004Z,14.93
2017-12-21T01:13:53.606Z,15.40
2017-12-21T01:16:20.215Z,13.50
2017-12-21T01:18:46.812Z,13.97
2017-12-21T01:21:13.417Z,14.40
2017-12-21T01:23:40.033Z,13.57
2017-12-21T01:26:06.637Z,14.03
2017-12-21T01:28:33.235Z,13.60
2017-12-21T01:30:59.858Z,14.10
2017-12-21T01:33:26.456Z,14.30
2017-12-21T01:35:53.055Z,13.87
2017-12-21T01:38:19.664Z,13.17
2017-12-21T01:40:46.265Z,14.20
2017-12-21T01:43:12.864Z,14.40
2017-12-21T01:45:39.492Z,13.97
2017-12-21T01:48:06.095Z,14.33
2017-12-21T01:50:32.691Z,13.57
2017-12-21T01:52:59.307Z,14.20
2017-12-21T01:55:25.902Z,13.97
2017-12-21T01:57:52.495Z,12.47
2017-12-21T02:00:19.116Z,14.30
2017-12-21T02:02:45.712Z,13.70
2017-12-21T02:05:12.316Z,12.70
2017-12-21T02:07:38.932Z,14.43
2017-12-21T02:10:05.532Z,13.40
2017-12-21T02:12:32.128Z,13.50
2017-12-21T02:14:58.740Z,14.73
2017-12-21T02:17:25.335Z,14.10
2017-12-21T02:19:51.946Z,13.40
2017-12-21T02:22:18.607Z,14.13
2017-12-21T02:24:45.187Z,14.10
2017-12-21T02:27:11.779Z,13.13
2017-12-21T02:29:38.403Z,12.30
2017-12-21T02:32:05.005Z,13.10
2017-12-21T02:34:31.609Z,12.80
2017-12-21T02:36:58.224Z,12.47
2017-12-21T02:39:24.839Z,13.30
2017-12-21T02:41:51.436Z,13.13
2017-12-21T02:44:18.049Z,13.07
2017-12-21T02:46:44.648Z,13.40
2017-12-21T02:49:11.796Z,12.50
2017-12-21T02:51:38.408Z,13.47
2017-12-21T02:54:05.015Z,13.07
2017-12-21T02:56:31.620Z,12.27
2017-12-21T02:58:58.237Z,12.67
2017-12-21T03:01:24.836Z,13.07
2017-12-21T03:03:51.435Z,12.87
2017-12-21T03:06:18.055Z,12.73
2017-12-21T03:08:44.648Z,12.83
2017-12-21T03:11:11.249Z,12.27
2017-12-21T03:13:37.867Z,12.97
2017-12-21T03:16:04.464Z,13.37
2017-12-21T03:18:31.059Z,12.87
2017-12-21T03:20:57.677Z,12.93
2017-12-21T03:23:24.276Z,13.33
2017-12-21T03:25:50.877Z,13.10
2017-12-21T03:28:17.483Z,12.90
2017-12-21T03:30:44.087Z,12.80
2017-12-21T03:33:10.681Z,13.67
2017-12-21T03:35:37.311Z,13.13
2017-12-21T03:38:03.907Z,13.03
2017-12-21T03:40:30.513Z,12.90
2017-12-21T03:42:57.128Z,13.20
2017-12-21T03:45:23.720Z,13.17
2017-12-21T03:47:50.328Z,14.00
2017-12-21T03:50:16.936Z,12.60
2017-12-21T03:52:43.536Z,12.90
2017-12-21T03:55:10.140Z,12.50
2017-12-21T03:57:36.760Z,12.13
2017-12-21T04:00:03.355Z,12.63
2017-12-21T04:02:29.967Z,12.13
2017-12-21T04:04:56.570Z,13.33
2017-12-21T04:07:23.172Z,12.93
2017-12-21T04:09:49.788Z,12.80
2017-12-21T04:12:16.412Z,13.30
2017-12-21T04:14:43.011Z,12.67
2017-12-21T04:17:09.614Z,13.77
2017-12-21T04:19:36.240Z,12.63
2017-12-21T04:22:02.860Z,12.50
2017-12-21T04:24:29.460Z,12.83
2017-12-21T04:26:56.084Z,11.77
2017-12-21T04:29:22.692Z,12.90
2017-12-21T04:31:49.291Z,11.50
2017-12-21T04:34:15.900Z,12.33
2017-12-21T04:36:42.503Z,11.30
2017-12-21T04:39:09.103Z,11.23
2017-12-21T04:41:35.724Z,11.20
2017-12-21T04:44:02.324Z,11.10
2017-12-21T04:46:28.915Z,10.93
2017-12-21T04:48:55.522Z,11.40
2017-12-21T04:51:22.136Z,11.40
2017-12-21T04:53:48.736Z,11.70
2017-12-21T04:56:15.342Z,11.50
2017-12-21T04:58:41.947Z,13.50
2017-12-21T05:01:08.547Z,12.50
2017-12-21T05:03:35.184Z,13.60
2017-12-21T05:06:01.780Z,14.90
2017-12-21T05:08:28.387Z,14.63
2017-12-21T05:10:54.987Z,13.93
2017-12-21T05:13:21.587Z,14.40
2017-12-21T05:15:48.190Z,14.93
2017-12-21T05:18:14.796Z,14.90
2017-12-21T05:20:41.402Z,15.47
2017-12-21T05:23:08.009Z,15.70
2017-12-21T05:25:34.629Z,16.00
2017-12-21T05:28:01.224Z,15.40
2017-12-21T05:30:27.835Z,16.90
2017-12-21T05:32:54.435Z,16.93
2017-12-21T05:35:21.037Z,17.50
2017-12-21T05:37:47.637Z,17.47
2017-12-21T05:40:14.268Z,17.60
2017-12-21T05:42:40.863Z,17.30
2017-12-21T05:45:07.459Z,17.87
2017-12-21T05:47:34.085Z,18.03
2017-12-21T05:50:00.683Z,17.77
2017-12-21T05:52:27.295Z,17.60
2017-12-21T05:54:53.918Z,18.53
2017-12-21T05:57:20.532Z,18.80
2017-12-21T05:59:47.132Z,17.67
2017-12-21T06:02:13.746Z,16.83
2017-12-21T06:04:40.340Z,17.10
2017-12-21T06:07:06.940Z,17.80
2017-12-21T06:09:33.565Z,17.20
2017-12-21T06:12:00.163Z,18.40
2017-12-21T06:14:26.764Z,17.13
2017-12-21T06:16:53.394Z,18.70
2017-12-21T06:19:19.991Z,17.10
2017-12-21T06:21:46.591Z,17.53
2017-12-21T06:24:13.204Z,16.30
2017-12-21T06:26:39.808Z,17.17
2017-12-21T06:29:06.406Z,17.80
2017-12-21T06:31:33.026Z,18.80
2017-12-21T06:33:59.624Z,18.20
2017-12-21T06:36:26.227Z,17.10
2017-12-21T06:38:52.843Z,17.70
2017-12-21T06:41:19.444Z,17.33
2017-12-21T06:43:46.040Z,17.93
2017-12-21T06:46:12.655Z,16.60
2017-12-21T06:48:39.284Z,16.87
2017-12-21T06:51:05.881Z,17.93
2017-12-21T06:53:32.505Z,18.20
2017-12-21T06:55:59.247Z,17.73
2017-12-21T06:58:25.951Z,17.70
2017-12-21T07:00:52.634Z,18.30
2017-12-21T07:03:19.232Z,18.30
2017-12-21T07:05:45.827Z,18.17
2017-12-21T07:08:12.620Z,18.57
2017-12-21T07:10:39.263Z,18.97
2017-12-21T07:13:05.860Z,18.30
2017-12-21T07:15:32.480Z,18.20
2017-12-21T07:17:59.085Z,18.20
2017-12-21T07:20:25.679Z,17.80
2017-12-21T07:22:52.298Z,17.47
2017-12-21T07:25:18.896Z,18.70
2017-12-21T07:27:45.504Z,17.53
2017-12-21T07:30:12.111Z,17.30
2017-12-21T07:32:38.763Z,17.97
2017-12-21T07:35:05.352Z,17.17
2017-12-21T07:37:31.964Z,17.60
2017-12-21T07:39:58.567Z,18.37
2017-12-21T07:42:25.168Z,17.77
2017-12-21T07:44:51.788Z,17.90
2017-12-21T07:47:18.379Z,18.00
2017-12-21T07:49:44.989Z,18.23
2017-12-21T07:52:11.608Z,18.80
2017-12-21T07:54:38.216Z,18.67
2017-12-21T07:57:04.823Z,18.73
2017-12-21T07:59:31.444Z,19.73
2017-12-21T08:01:58.047Z,17.30
2017-12-21T08:04:24.644Z,19.17
2017-12-21T08:06:51.320Z,17.60
2017-12-21T08:09:17.852Z,19.00
2017-12-21T08:11:44.463Z,19.90
2017-12-21T08:14:11.068Z,19.30
2017-12-21T08:16:37.670Z,20.10
2017-12-21T08:19:04.271Z,19.63
2017-12-21T08:21:30.888Z,19.63
2017-12-21T08:23:58.242Z,17.73
2017-12-21T08:26:24.836Z,19.17
2017-12-21T08:28:51.443Z,19.63
2017-12-21T08:31:18.044Z,19.80
2017-12-21T08:33:44.648Z,18.87
2017-12-21T08:36:11.253Z,19.73
2017-12-21T08:38:37.852Z,21.10
2017-12-21T08:41:04.454Z,21.73
2017-12-21T08:43:31.076Z,20.80
2017-12-21T08:45:57.671Z,20.90
2017-12-21T08:48:24.287Z,22.53
2017-12-21T08:50:50.888Z,21.10
2017-12-21T08:53:17.492Z,20.20
2017-12-21T08:55:44.093Z,21.80
2017-12-21T08:58:10.699Z,21.13
2017-12-21T09:00:37.312Z,22.90
2017-12-21T09:03:04.135Z,22.33
2017-12-21T09:05:30.745Z,20.10
2017-12-21T09:07:57.341Z,21.00
2017-12-21T09:10:23.945Z,21.53
2017-12-21T09:12:50.557Z,19.40
2017-12-21T09:15:17.155Z,20.73
2017-12-21T09:17:43.752Z,22.27
2017-12-21T09:20:10.383Z,20.40
2017-12-21T09:22:38.960Z,20.47
2017-12-21T09:25:05.575Z,20.37
2017-12-21T09:27:32.187Z,19.83
2017-12-21T09:29:58.788Z,19.43
2017-12-21T09:32:25.384Z,19.67
2017-12-21T09:34:52.004Z,20.17
2017-12-21T09:37:18.966Z,19.53
2017-12-21T09:39:46.376Z,19.87
2017-12-21T09:42:13.279Z,19.57
2017-12-21T09:44:40.092Z,19.40
2017-12-21T09:47:06.872Z,18.37
2017-12-21T09:49:33.496Z,18.77
2017-12-21T09:52:00.100Z,18.17
2017-12-21T09:54:26.712Z,18.83
2017-12-21T09:56:53.344Z,19.47
2017-12-21T09:59:19.927Z,19.20
2017-12-21T10:01:46.548Z,17.40
2017-12-21T10:04:13.153Z,18.03
2017-12-21T10:06:39.761Z,18.50
2017-12-21T10:09:06.355Z,17.23
2017-12-21T10:11:32.975Z,16.70
2017-12-21T10:13:59.576Z,16.70
2017-12-21T10:16:26.212Z,18.10
2017-12-21T10:18:52.828Z,17.83
2017-12-21T10:21:19.435Z,19.00
2017-12-21T10:23:46.031Z,19.20
2017-12-21T10:26:12.649Z,18.03
2017-12-21T10:28:39.248Z,16.40
2017-12-21T10:31:05.867Z,17.17
2017-12-21T10:33:32.496Z,17.10
2017-12-21T10:35:59.102Z,16.90
2017-12-21T10:38:25.703Z,17.03
2017-12-21T10:40:52.321Z,16.43
2017-12-21T10:43:19.173Z,17.30
2017-12-21T10:45:45.760Z,16.30
2017-12-21T10:48:12.381Z,16.23
2017-12-21T10:50:38.980Z,15.43
2017-12-21T10:53:05.584Z,16.30
2017-12-21T10:55:32.228Z,16.30
2017-12-21T10:57:58.868Z,16.43
2017-12-21T11:00:25.487Z,16.37
2017-12-21T11:02:52.205Z,15.70
2017-12-21T11:05:18.889Z,15.90
2017-12-21T11:07:45.509Z,16.17
2017-12-21T11:10:12.137Z,14.97
2017-12-21T11:12:38.735Z,15.20
2017-12-21T11:15:05.337Z,14.87
2017-12-21T11:17:31.956Z,14.03
2017-12-21T11:19:59.225Z,14.10
2017-12-21T11:22:25.820Z,14.50
2017-12-21T11:24:52.435Z,15.37
2017-12-21T11:27:19.116Z,15.00
2017-12-21T11:29:45.713Z,18.50
2017-12-21T11:32:12.347Z,16.67
2017-12-21T11:34:38.960Z,14.97
2017-12-21T11:37:05.553Z,14.30
2017-12-21T11:39:32.184Z,13.70
2017-12-21T11:41:58.798Z,13.97
2017-12-21T11:44:25.426Z,14.13
2017-12-21T11:46:52.032Z,14.37
2017-12-21T11:49:18.704Z,12.00
2017-12-21T11:51:45.297Z,12.37
2017-12-21T11:54:11.912Z,11.77
2017-12-21T11:56:38.512Z,11.70
2017-12-21T11:59:05.128Z,11.00
2017-12-21T12:01:34.736Z,11.83
2017-12-21T12:04:03.593Z,11.60
2017-12-21T12:06:30.780Z,12.20
2017-12-21T12:08:57.384Z,11.50
2017-12-21T12:11:23.988Z,11.87
2017-12-21T12:13:50.695Z,12.40
2017-12-21T12:16:17.345Z,12.00
2017-12-21T12:18:43.952Z,11.67
2017-12-21T12:21:10.556Z,11.37
2017-12-21T12:23:37.169Z,11.00
2017-12-21T12:26:03.784Z,11.10
2017-12-21T12:28:30.409Z,11.40
2017-12-21T12:30:57.011Z,12.50
2017-12-21T12:33:23.608Z,11.97
2017-12-21T12:35:50.204Z,11.70
2017-12-21T12:38:16.815Z,11.97
2017-12-21T12:40:43.422Z,11.87
2017-12-21T12:43:10.048Z,11.70
2017-12-21T12:45:36.663Z,11.00
2017-12-21T12:48:03.260Z,10.43
2017-12-21T12:50:29.856Z,11.30
2017-12-21T12:52:56.463Z,11.57
2017-12-21T12:55:23.065Z,11.40
2017-12-21T12:57:49.710Z,11.87
2017-12-21T13:00:16.395Z,11.93
2017-12-21T13:02:42.997Z,11.87
2017-12-21T13:05:09.601Z,12.63
2017-12-21T13:07:36.212Z,11.67
2017-12-21T13:10:02.819Z,12.60
2017-12-21T13:12:29.411Z,12.53
2017-12-21T13:14:56.028Z,12.27
2017-12-21T13:17:22.628Z,11.80
2017-12-21T13:19:49.228Z,12.70
2017-12-21T13:22:15.836Z,12.63
2017-12-21T13:24:42.432Z,14.17
2017-12-21T13:27:09.037Z,14.20
2017-12-21T13:29:35.657Z,15.73
2017-12-21T13:32:02.260Z,13.73
2017-12-21T13:34:28.864Z,14.37
2017-12-21T13:36:55.477Z,14.67
2017-12-21T13:39:22.076Z,15.30
2017-12-21T13:41:48.684Z,13.37
2017-12-21T13:44:15.301Z,13.60
2017-12-21T13:46:41.900Z,13.63
2017-12-21T13:49:08.504Z,13.30
2017-12-21T13:51:35.180Z,12.80
2017-12-21T13:54:01.784Z,13.07
2017-12-21T13:56:28.383Z,12.37
2017-12-21T13:58:55.000Z,13.53
2017-12-21T14:01:21.603Z,13.50
2017-12-21T14:03:48.203Z,14.33
2017-12-21T14:06:14.824Z,13.43
2017-12-21T14:08:41.424Z,12.43
2017-12-21T14:11:08.020Z,11.77
2017-12-21T14:13:34.634Z,14.17
2017-12-21T14:16:01.240Z,13.00
2017-12-21T14:18:27.836Z,12.40
2017-12-21T14:20:54.447Z,12.07
2017-12-21T14:23:21.045Z,12.60
2017-12-21T14:25:47.635Z,13.10
2017-12-21T14:28:14.255Z,12.33
2017-12-21T14:30:40.849Z,12.80
2017-12-21T14:33:07.447Z,13.60
2017-12-21T14:35:34.084Z,13.30
2017-12-21T14:38:00.684Z,12.70
2017-12-21T14:40:27.280Z,13.73
2017-12-21T14:42:53.891Z,14.10
2017-12-21T14:45:20.492Z,12.73
2017-12-21T14:47:47.093Z,13.27
2017-12-21T14:50:13.704Z,12.73
2017-12-21T14:52:40.299Z,13.80
2017-12-21T14:55:06.896Z,13.30
2017-12-21T14:57:33.520Z,13.93
2017-12-21T15:00:00.115Z,13.43
2017-12-21T15:02:26.720Z,14.07
2017-12-21T15:04:53.339Z,13.47
2017-12-21T15:07:19.944Z,14.33
2017-12-21T15:09:46.544Z,14.23
2017-12-21T15:12:13.156Z,13.43
2017-12-21T15:14:39.755Z,13.97
2017-12-21T15:17:06.351Z,14.83
2017-12-21T15:19:32.976Z,14.33
2017-12-21T15:21:59.579Z,14.80
2017-12-21T15:24:26.183Z,15.10
2017-12-21T15:26:52.798Z,15.73
2017-12-21T15:29:19.400Z,13.63
2017-12-21T15:31:46.009Z,13.73
2017-12-21T15:34:12.613Z,13.70
2017-12-21T15:36:39.212Z,13.60
2017-12-21T15:39:05.816Z,15.03
2017-12-21T15:41:32.436Z,13.30
2017-12-21T15:43:59.031Z,13.50
2017-12-21T15:46:25.664Z,12.70
2017-12-21T15:48:52.272Z,12.43
2017-12-21T15:51:18.873Z,13.17
2017-12-21T15:53:45.480Z,13.43
2017-12-21T15:56:12.088Z,14.40
2017-12-21T15:58:38.694Z,14.37
2017-12-21T16:01:05.289Z,13.47
2017-12-21T16:03:31.924Z,13.80
2017-12-21T16:05:58.523Z,15.77
2017-12-21T16:08:25.121Z,14.20
2017-12-21T16:10:51.732Z,13.20
2017-12-21T16:15:51.556Z,13.90
2017-12-21T16:18:18.164Z,15.60
2017-12-21T16:20:44.764Z,15.20
2017-12-21T16:23:11.389Z,14.30
2017-12-21T16:25:38.920Z,15.07
2017-12-21T16:28:05.517Z,14.73
2017-12-21T16:30:32.993Z,16.60
2017-12-21T16:32:59.567Z,15.97
2017-12-21T16:35:26.168Z,16.20
2017-12-21T16:37:52.780Z,17.27
2017-12-21T16:40:19.380Z,18.10
2017-12-21T16:42:45.988Z,16.60
2017-12-21T16:45:12.605Z,17.30
2017-12-21T16:47:39.204Z,17.93
2017-12-21T16:50:05.816Z,17.23
2017-12-21T16:52:32.427Z,16.87
2017-12-21T16:54:59.028Z,17.47
2017-12-21T16:57:25.636Z,17.30
2017-12-21T16:59:52.243Z,19.30
2017-12-21T17:02:18.835Z,18.83
2017-12-21T17:04:45.432Z,18.27
2017-12-21T17:07:12.055Z,19.23
2017-12-21T17:09:38.651Z,18.90
2017-12-21T17:12:05.261Z,19.80
2017-12-21T17:14:31.872Z,19.60
2017-12-21T17:16:58.464Z,18.63
2017-12-21T17:19:25.069Z,19.87
2017-12-21T17:21:51.680Z,19.40
2017-12-21T17:24:18.282Z,19.43
2017-12-21T17:26:44.890Z,19.30
2017-12-21T17:29:11.888Z,19.60
2017-12-21T17:31:38.489Z,20.03
2017-12-21T17:34:05.092Z,20.57
2017-12-21T17:36:31.757Z,20.90
2017-12-21T17:38:58.301Z,21.07
2017-12-21T17:41:24.907Z,19.90
2017-12-21T17:43:51.521Z,21.53
2017-12-21T17:46:18.121Z,22.17
2017-12-21T17:48:44.720Z,20.60
2017-12-21T17:51:11.351Z,22.00
2017-12-21T17:53:37.952Z,21.90
2017-12-21T17:56:04.556Z,20.20
2017-12-21T17:58:31.176Z,21.20
2017-12-21T18:00:57.775Z,21.83
2017-12-21T18:03:24.380Z,19.93
2017-12-21T18:05:51.003Z,21.20
2017-12-21T18:08:17.604Z,20.30
2017-12-21T18:10:44.204Z,21.37
2017-12-21T18:13:10.828Z,17.97
2017-12-21T18:15:37.435Z,22.87
2017-12-21T18:18:04.036Z,22.63
2017-12-21T18:20:30.649Z,23.23
2017-12-21T18:22:57.240Z,20.87
2017-12-21T18:25:23.850Z,21.97
2017-12-21T18:27:50.480Z,21.93
2017-12-21T18:30:17.104Z,22.57
2017-12-21T18:32:43.704Z,22.50
2017-12-21T18:35:10.343Z,21.70
2017-12-21T18:37:36.944Z,21.77
2017-12-21T18:40:03.548Z,19.47
2017-12-21T18:42:30.160Z,20.87
2017-12-21T18:44:56.764Z,21.37
2017-12-21T18:47:23.368Z,20.40
2017-12-21T18:49:49.980Z,22.93
2017-12-21T18:52:16.595Z,22.07
2017-12-21T18:54:43.196Z,23.50
2017-12-21T18:57:09.804Z,23.10
2017-12-21T18:59:36.405Z,23.30
2017-12-21T19:02:03.935Z,21.60
2017-12-21T19:04:30.544Z,22.13
2017-12-21T19:06:57.151Z,20.30
2017-12-21T19:09:23.756Z,20.77
2017-12-21T19:11:50.376Z,21.47
2017-12-21T19:14:16.974Z,20.80
2017-12-21T19:16:43.583Z,20.20
2017-12-21T19:19:10.208Z,19.77
2017-12-21T19:21:36.824Z,21.17
2017-12-21T19:24:04.044Z,20.70
2017-12-21T19:26:30.688Z,20.90
2017-12-21T19:28:57.417Z,21.40
2017-12-21T19:31:24.039Z,19.23
2017-12-21T19:33:50.680Z,20.37
2017-12-21T19:36:17.286Z,21.20
2017-12-21T19:38:43.893Z,20.77
2017-12-21T19:41:10.513Z,20.53
2017-12-21T19:43:37.129Z,21.87
2017-12-21T19:46:03.759Z,21.50
2017-12-21T19:48:30.459Z,21.63
2017-12-21T19:50:57.158Z,21.70
2017-12-21T19:53:23.776Z,21.83
2017-12-21T19:55:50.398Z,22.30
2017-12-21T19:58:17.010Z,22.37
2017-12-21T20:00:43.609Z,21.83
2017-12-21T20:03:10.347Z,23.97
2017-12-21T20:05:36.949Z,22.47
2017-12-21T20:08:03.568Z,24.37
2017-12-21T20:10:30.259Z,23.30
2017-12-21T20:12:56.860Z,24.30
2017-12-21T20:15:25.609Z,25.60
2017-12-21T20:17:54.887Z,23.63
2017-12-21T20:20:21.522Z,22.77
2017-12-21T20:22:48.116Z,23.27
2017-12-21T20:25:16.889Z,23.77
2017-12-21T20:27:43.512Z,22.70
2017-12-21T20:30:10.109Z,22.30
2017-12-21T20:32:36.809Z,21.90
2017-12-21T20:35:03.413Z,23.17
2017-12-21T20:37:30.017Z,21.13
2017-12-21T20:39:56.649Z,21.97
2017-12-21T20:42:23.244Z,21.23
2017-12-21T20:44:49.840Z,20.40
2017-12-21T20:47:16.455Z,19.50
2017-12-21T20:49:43.045Z,20.27
2017-12-21T20:52:09.660Z,19.97
2017-12-21T20:54:36.282Z,18.57
2017-12-21T20:57:02.882Z,20.57
2017-12-21T20:59:29.496Z,20.30
2017-12-21T21:01:56.124Z,19.30
2017-12-21T21:04:22.724Z,20.47
2017-12-21T21:06:49.324Z,21.10
2017-12-21T21:09:15.940Z,18.50
2017-12-21T21:11:42.545Z,21.00
2017-12-21T21:14:09.148Z,19.80
2017-12-21T21:16:35.815Z,21.43
2017-12-21T21:19:02.406Z,18.77
2017-12-21T21:21:29.004Z,19.50
2017-12-21T21:23:55.639Z,19.63
2017-12-21T21:26:22.213Z,20.23
2017-12-21T21:28:48.808Z,20.40
2017-12-21T21:31:15.427Z,19.23
2017-12-21T21:33:42.023Z,18.23
2017-12-21T21:36:08.627Z,17.73
2017-12-21T21:38:35.246Z,17.43
2017-12-21T21:41:01.843Z,18.27
2017-12-21T21:43:28.550Z,19.73
2017-12-21T21:45:55.144Z,22.07
2017-12-21T21:48:21.748Z,22.10
2017-12-21T21:50:48.344Z,21.63
2017-12-21T21:53:14.972Z,21.47
2017-12-21T21:55:41.571Z,21.90
2017-12-21T21:58:08.168Z,22.80
2017-12-21T22:00:34.807Z,22.20
2017-12-21T22:03:01.408Z,21.83
2017-12-21T22:05:28.008Z,19.70
2017-12-21T22:07:54.623Z,19.40
2017-12-21T22:10:21.223Z,19.00
2017-12-21T22:12:48.600Z,19.07
2017-12-21T22:15:15.240Z,18.80
2017-12-21T22:17:41.859Z,19.00
2017-12-21T22:20:08.439Z,17.33
2017-12-21T22:22:35.089Z,18.07
2017-12-21T22:25:01.691Z,17.10
2017-12-21T22:27:28.284Z,17.90
2017-12-21T22:29:54.909Z,16.47
2017-12-21T22:32:21.503Z,15.90
2017-12-21T22:34:48.105Z,17.93
2017-12-21T22:37:14.725Z,17.63
2017-12-21T22:39:41.319Z,16.70
2017-12-21T22:42:07.923Z,19.93
2017-12-21T22:44:34.544Z,20.73
2017-12-21T22:47:01.812Z,20.43
2017-12-21T22:49:28.497Z,17.93
2017-12-21T22:51:55.120Z,19.50
2017-12-21T22:54:21.712Z,20.83
2017-12-21T22:56:48.308Z,19.27
2017-12-21T22:59:14.923Z,17.50
2017-12-21T23:01:41.523Z,18.00
2017-12-21T23:04:08.120Z,19.00
2017-12-21T23:06:34.759Z,17.87
2017-12-21T23:09:01.347Z,18.03
2017-12-21T23:11:29.042Z,19.27
2017-12-21T23:13:55.716Z,17.07
2017-12-21T23:16:22.320Z,16.90
2017-12-21T23:18:48.919Z,17.17
2017-12-21T23:21:15.528Z,15.33
2017-12-21T23:23:42.128Z,15.30
2017-12-21T23:26:08.728Z,14.90
2017-12-21T23:28:35.547Z,15.63
2017-12-21T23:31:02.127Z,16.00
2017-12-21T23:33:28.725Z,16.07
2017-12-21T23:35:55.332Z,15.20
2017-12-21T23:38:21.927Z,14.50
2017-12-21T23:40:48.526Z,14.37
2017-12-21T23:43:15.147Z,14.90
2017-12-21T23:45:41.744Z,14.27
2017-12-21T23:48:08.357Z,13.30
2017-12-21T23:50:34.972Z,13.00
2017-12-21T23:53:01.586Z,13.77
2017-12-21T23:55:28.180Z,13.60
2017-12-21T23:57:54.792Z,13.57
